sensor_id;sensor_type;location;lat;lon;timestamp;temperature;humidity
22742;DHT22;11538;48.884;8.696;2023-05-27T00:00:10;14.50;99.90
22742;DHT22;11538;48.884;8.696;2023-05-27T00:02:38;14.50;99.90
22742;DHT22;11538;48.884;8.696;2023-05-27T00:05:06;14.50;99.90
22742;DHT22;11538;48.884;8.696;2023-05-27T00:07:33;14.40;99.90
22742;DHT22;11538;48.884;8.696;2023-05-27T00:10:00;14.40;99.90
22742;DHT22;11538;48.884;8.696;2023-05-27T00:12:27;14.40;99.90
22742;DHT22;11538;48.884;8.696;2023-05-27T00:14:54;14.40;99.90
22742;DHT22;11538;48.884;8.696;2023-05-27T00:17:22;14.30;99.90
22742;DHT22;11538;48.884;8.696;2023-05-27T00:19:52;14.30;99.90
22742;DHT22;11538;48.884;8.696;2023-05-27T00:22:23;14.30;99.90
22742;DHT22;11538;48.884;8.696;2023-05-27T00:24:50;14.20;99.90
22742;DHT22;11538;48.884;8.696;2023-05-27T00:27:20;14.10;99.90
22742;DHT22;11538;48.884;8.696;2023-05-27T00:29:47;14.10;99.90
22742;DHT22;11538;48.884;8.696;2023-05-27T00:32:14;14.10;99.90
22742;DHT22;11538;48.884;8.696;2023-05-27T00:34:41;14.00;99.90
22742;DHT22;11538;48.884;8.696;2023-05-27T00:37:08;13.90;99.90
22742;DHT22;11538;48.884;8.696;2023-05-27T00:39:35;13.80;99.90
22742;DHT22;11538;48.884;8.696;2023-05-27T00:42:02;13.80;99.90
22742;DHT22;11538;48.884;8.696;2023-05-27T00:44:29;13.80;99.90
22742;DHT22;11538;48.884;8.696;2023-05-27T00:46:56;13.80;99.90
22742;DHT22;11538;48.884;8.696;2023-05-27T00:49:23;13.80;99.90
22742;DHT22;11538;48.884;8.696;2023-05-27T00:51:53;13.80;99.90
22742;DHT22;11538;48.884;8.696;2023-05-27T00:54:20;13.90;99.90
22742;DHT22;11538;48.884;8.696;2023-05-27T00:56:47;13.90;99.90
22742;DHT22;11538;48.884;8.696;2023-05-27T00:59:14;13.80;99.90
22742;DHT22;11538;48.884;8.696;2023-05-27T01:01:42;13.90;99.90
22742;DHT22;11538;48.884;8.696;2023-05-27T01:04:14;13.90;99.90
22742;DHT22;11538;48.884;8.696;2023-05-27T01:09:40;13.90;99.90
22742;DHT22;11538;48.884;8.696;2023-05-27T01:12:34;13.90;99.90
22742;DHT22;11538;48.884;8.696;2023-05-27T01:15:07;13.90;99.90
22742;DHT22;11538;48.884;8.696;2023-05-27T01:17:36;13.90;99.90
22742;DHT22;11538;48.884;8.696;2023-05-27T01:20:10;13.90;99.90
22742;DHT22;11538;48.884;8.696;2023-05-27T01:22:42;13.90;99.90
22742;DHT22;11538;48.884;8.696;2023-05-27T01:25:10;13.90;99.90
22742;DHT22;11538;48.884;8.696;2023-05-27T01:27:37;13.90;99.90
22742;DHT22;11538;48.884;8.696;2023-05-27T01:30:09;14.00;99.90
22742;DHT22;11538;48.884;8.696;2023-05-27T01:35:31;13.90;99.90
22742;DHT22;11538;48.884;8.696;2023-05-27T01:38:14;13.80;99.90
22742;DHT22;11538;48.884;8.696;2023-05-27T01:40:50;13.80;99.90
22742;DHT22;11538;48.884;8.696;2023-05-27T01:43:18;13.80;99.90
22742;DHT22;11538;48.884;8.696;2023-05-27T01:45:46;13.80;99.90
22742;DHT22;11538;48.884;8.696;2023-05-27T01:48:17;13.80;99.90
22742;DHT22;11538;48.884;8.696;2023-05-27T01:50:45;13.80;99.90
22742;DHT22;11538;48.884;8.696;2023-05-27T01:53:14;13.80;99.90
22742;DHT22;11538;48.884;8.696;2023-05-27T01:55:41;13.70;99.90
22742;DHT22;11538;48.884;8.696;2023-05-27T01:58:10;13.60;99.90
22742;DHT22;11538;48.884;8.696;2023-05-27T02:00:37;13.60;99.90
22742;DHT22;11538;48.884;8.696;2023-05-27T02:03:04;13.60;99.90
22742;DHT22;11538;48.884;8.696;2023-05-27T02:05:31;13.60;99.90
22742;DHT22;11538;48.884;8.696;2023-05-27T02:07:59;13.60;99.90
22742;DHT22;11538;48.884;8.696;2023-05-27T02:10:25;13.60;99.90
22742;DHT22;11538;48.884;8.696;2023-05-27T02:12:52;13.50;99.90
22742;DHT22;11538;48.884;8.696;2023-05-27T02:15:19;13.50;99.90
22742;DHT22;11538;48.884;8.696;2023-05-27T02:17:52;13.40;99.90
22742;DHT22;11538;48.884;8.696;2023-05-27T02:20:22;13.40;99.90
22742;DHT22;11538;48.884;8.696;2023-05-27T02:22:50;13.40;99.90
22742;DHT22;11538;48.884;8.696;2023-05-27T02:25:17;13.40;99.90
22742;DHT22;11538;48.884;8.696;2023-05-27T02:27:44;13.50;99.90
22742;DHT22;11538;48.884;8.696;2023-05-27T02:30:15;13.40;99.90
22742;DHT22;11538;48.884;8.696;2023-05-27T02:32:43;13.40;99.90
22742;DHT22;11538;48.884;8.696;2023-05-27T02:35:13;13.40;99.90
22742;DHT22;11538;48.884;8.696;2023-05-27T02:37:43;13.40;99.90
22742;DHT22;11538;48.884;8.696;2023-05-27T02:40:26;13.30;99.90
22742;DHT22;11538;48.884;8.696;2023-05-27T02:42:55;13.30;99.90
22742;DHT22;11538;48.884;8.696;2023-05-27T02:45:23;13.20;99.90
22742;DHT22;11538;48.884;8.696;2023-05-27T02:47:53;13.20;99.90
22742;DHT22;11538;48.884;8.696;2023-05-27T02:50:22;13.10;99.90
22742;DHT22;11538;48.884;8.696;2023-05-27T02:52:49;13.00;99.90
22742;DHT22;11538;48.884;8.696;2023-05-27T02:55:16;13.00;99.90
22742;DHT22;11538;48.884;8.696;2023-05-27T02:57:42;12.90;99.90
22742;DHT22;11538;48.884;8.696;2023-05-27T03:00:10;12.90;99.90
22742;DHT22;11538;48.884;8.696;2023-05-27T03:02:38;12.80;99.90
22742;DHT22;11538;48.884;8.696;2023-05-27T03:05:05;12.70;99.90
22742;DHT22;11538;48.884;8.696;2023-05-27T03:07:32;12.60;99.90
22742;DHT22;11538;48.884;8.696;2023-05-27T03:09:59;12.50;99.90
22742;DHT22;11538;48.884;8.696;2023-05-27T03:12:27;12.50;99.90
22742;DHT22;11538;48.884;8.696;2023-05-27T03:14:54;12.50;99.90
22742;DHT22;11538;48.884;8.696;2023-05-27T03:17:21;12.50;99.90
22742;DHT22;11538;48.884;8.696;2023-05-27T03:19:48;12.40;99.90
22742;DHT22;11538;48.884;8.696;2023-05-27T03:22:15;12.40;99.90
22742;DHT22;11538;48.884;8.696;2023-05-27T03:24:43;12.40;99.90
22742;DHT22;11538;48.884;8.696;2023-05-27T03:27:11;12.40;99.90
22742;DHT22;11538;48.884;8.696;2023-05-27T03:29:38;12.40;99.90
22742;DHT22;11538;48.884;8.696;2023-05-27T03:32:05;12.40;99.90
22742;DHT22;11538;48.884;8.696;2023-05-27T03:34:32;12.40;99.90
22742;DHT22;11538;48.884;8.696;2023-05-27T03:36:59;12.40;99.90
22742;DHT22;11538;48.884;8.696;2023-05-27T03:39:26;12.40;99.90
22742;DHT22;11538;48.884;8.696;2023-05-27T03:41:53;12.40;99.90
22742;DHT22;11538;48.884;8.696;2023-05-27T03:44:20;12.40;99.90
22742;DHT22;11538;48.884;8.696;2023-05-27T03:46:47;12.40;99.90
22742;DHT22;11538;48.884;8.696;2023-05-27T03:49:14;12.40;99.90
22742;DHT22;11538;48.884;8.696;2023-05-27T03:51:40;12.30;99.90
22742;DHT22;11538;48.884;8.696;2023-05-27T03:54:07;12.30;99.90
22742;DHT22;11538;48.884;8.696;2023-05-27T03:56:34;12.30;99.90
22742;DHT22;11538;48.884;8.696;2023-05-27T03:59:01;12.40;99.90
22742;DHT22;11538;48.884;8.696;2023-05-27T04:01:28;12.40;99.90
22742;DHT22;11538;48.884;8.696;2023-05-27T04:03:56;12.30;99.90
22742;DHT22;11538;48.884;8.696;2023-05-27T04:06:23;12.20;99.90
22742;DHT22;11538;48.884;8.696;2023-05-27T04:08:52;12.20;99.90
22742;DHT22;11538;48.884;8.696;2023-05-27T04:11:19;12.20;99.90
22742;DHT22;11538;48.884;8.696;2023-05-27T04:13:47;12.10;99.90
22742;DHT22;11538;48.884;8.696;2023-05-27T04:16:23;12.10;99.90
22742;DHT22;11538;48.884;8.696;2023-05-27T04:18:52;12.10;99.90
22742;DHT22;11538;48.884;8.696;2023-05-27T04:21:21;12.10;99.90
22742;DHT22;11538;48.884;8.696;2023-05-27T04:23:49;12.10;99.90
22742;DHT22;11538;48.884;8.696;2023-05-27T04:26:16;12.10;99.90
22742;DHT22;11538;48.884;8.696;2023-05-27T04:28:43;12.10;99.90
22742;DHT22;11538;48.884;8.696;2023-05-27T04:31:12;12.10;99.90
22742;DHT22;11538;48.884;8.696;2023-05-27T04:33:42;12.10;99.90
22742;DHT22;11538;48.884;8.696;2023-05-27T04:36:12;12.10;99.90
22742;DHT22;11538;48.884;8.696;2023-05-27T04:38:43;12.10;99.90
22742;DHT22;11538;48.884;8.696;2023-05-27T04:41:12;12.10;99.90
22742;DHT22;11538;48.884;8.696;2023-05-27T04:43:39;12.20;99.90
22742;DHT22;11538;48.884;8.696;2023-05-27T04:46:09;12.30;99.90
22742;DHT22;11538;48.884;8.696;2023-05-27T04:48:36;12.30;99.90
22742;DHT22;11538;48.884;8.696;2023-05-27T04:51:03;12.30;99.90
22742;DHT22;11538;48.884;8.696;2023-05-27T04:53:31;12.30;99.90
22742;DHT22;11538;48.884;8.696;2023-05-27T04:55:59;12.30;99.90
22742;DHT22;11538;48.884;8.696;2023-05-27T04:58:25;12.40;99.90
22742;DHT22;11538;48.884;8.696;2023-05-27T05:00:55;12.40;99.90
22742;DHT22;11538;48.884;8.696;2023-05-27T05:03:23;12.50;99.90
22742;DHT22;11538;48.884;8.696;2023-05-27T05:06:04;12.60;99.90
22742;DHT22;11538;48.884;8.696;2023-05-27T05:08:34;12.60;99.90
22742;DHT22;11538;48.884;8.696;2023-05-27T05:11:01;12.60;99.90
22742;DHT22;11538;48.884;8.696;2023-05-27T05:13:30;12.70;99.90
22742;DHT22;11538;48.884;8.696;2023-05-27T05:15:57;12.80;99.90
22742;DHT22;11538;48.884;8.696;2023-05-27T05:18:24;12.80;99.90
22742;DHT22;11538;48.884;8.696;2023-05-27T05:20:52;12.90;99.90
22742;DHT22;11538;48.884;8.696;2023-05-27T05:23:19;13.00;99.90
22742;DHT22;11538;48.884;8.696;2023-05-27T05:25:46;13.10;99.90
22742;DHT22;11538;48.884;8.696;2023-05-27T05:28:20;13.10;99.90
22742;DHT22;11538;48.884;8.696;2023-05-27T05:30:50;13.20;99.90
22742;DHT22;11538;48.884;8.696;2023-05-27T05:33:18;13.20;99.90
22742;DHT22;11538;48.884;8.696;2023-05-27T05:35:47;13.30;99.90
22742;DHT22;11538;48.884;8.696;2023-05-27T05:38:14;13.40;99.90
22742;DHT22;11538;48.884;8.696;2023-05-27T05:40:41;13.40;99.90
22742;DHT22;11538;48.884;8.696;2023-05-27T05:43:08;13.50;99.90
22742;DHT22;11538;48.884;8.696;2023-05-27T05:45:35;13.60;99.90
22742;DHT22;11538;48.884;8.696;2023-05-27T05:48:04;13.70;99.90
22742;DHT22;11538;48.884;8.696;2023-05-27T05:50:31;13.80;99.90
22742;DHT22;11538;48.884;8.696;2023-05-27T05:52:59;13.90;99.90
22742;DHT22;11538;48.884;8.696;2023-05-27T05:55:29;14.00;99.90
22742;DHT22;11538;48.884;8.696;2023-05-27T05:57:56;14.20;99.90
22742;DHT22;11538;48.884;8.696;2023-05-27T06:00:23;14.30;99.90
22742;DHT22;11538;48.884;8.696;2023-05-27T06:02:50;14.40;99.90
22742;DHT22;11538;48.884;8.696;2023-05-27T06:05:18;14.50;99.90
22742;DHT22;11538;48.884;8.696;2023-05-27T06:07:45;14.60;99.90
22742;DHT22;11538;48.884;8.696;2023-05-27T06:10:13;14.70;99.90
22742;DHT22;11538;48.884;8.696;2023-05-27T06:12:40;14.80;99.90
22742;DHT22;11538;48.884;8.696;2023-05-27T06:15:08;14.90;99.90
22742;DHT22;11538;48.884;8.696;2023-05-27T06:17:35;14.90;99.90
22742;DHT22;11538;48.884;8.696;2023-05-27T06:20:05;15.10;99.90
22742;DHT22;11538;48.884;8.696;2023-05-27T06:22:33;15.10;99.90
22742;DHT22;11538;48.884;8.696;2023-05-27T06:25:01;15.20;99.90
22742;DHT22;11538;48.884;8.696;2023-05-27T06:27:28;15.30;99.90
22742;DHT22;11538;48.884;8.696;2023-05-27T06:29:55;15.40;99.90
22742;DHT22;11538;48.884;8.696;2023-05-27T06:32:23;15.50;99.90
22742;DHT22;11538;48.884;8.696;2023-05-27T06:34:50;15.60;99.90
22742;DHT22;11538;48.884;8.696;2023-05-27T06:37:17;15.60;99.90
22742;DHT22;11538;48.884;8.696;2023-05-27T06:39:44;15.70;99.90
22742;DHT22;11538;48.884;8.696;2023-05-27T06:42:11;15.80;99.90
22742;DHT22;11538;48.884;8.696;2023-05-27T06:44:37;15.80;99.90
22742;DHT22;11538;48.884;8.696;2023-05-27T06:47:05;16.00;99.90
22742;DHT22;11538;48.884;8.696;2023-05-27T06:49:32;16.00;99.90
22742;DHT22;11538;48.884;8.696;2023-05-27T06:51:59;16.10;99.90
22742;DHT22;11538;48.884;8.696;2023-05-27T06:54:26;16.10;99.90
22742;DHT22;11538;48.884;8.696;2023-05-27T06:56:53;16.20;99.90
22742;DHT22;11538;48.884;8.696;2023-05-27T06:59:19;16.30;99.90
22742;DHT22;11538;48.884;8.696;2023-05-27T07:01:46;16.40;99.90
22742;DHT22;11538;48.884;8.696;2023-05-27T07:04:16;16.40;99.90
22742;DHT22;11538;48.884;8.696;2023-05-27T07:06:43;16.60;99.90
22742;DHT22;11538;48.884;8.696;2023-05-27T07:09:10;16.60;99.90
22742;DHT22;11538;48.884;8.696;2023-05-27T07:11:38;16.70;99.90
22742;DHT22;11538;48.884;8.696;2023-05-27T07:14:04;16.90;99.90
22742;DHT22;11538;48.884;8.696;2023-05-27T07:16:33;16.90;99.90
22742;DHT22;11538;48.884;8.696;2023-05-27T07:19:00;17.10;99.90
22742;DHT22;11538;48.884;8.696;2023-05-27T07:21:27;17.20;99.90
22742;DHT22;11538;48.884;8.696;2023-05-27T07:23:54;17.30;99.90
22742;DHT22;11538;48.884;8.696;2023-05-27T07:26:20;17.40;99.90
22742;DHT22;11538;48.884;8.696;2023-05-27T07:28:47;17.50;99.90
22742;DHT22;11538;48.884;8.696;2023-05-27T07:31:15;17.70;99.90
22742;DHT22;11538;48.884;8.696;2023-05-27T07:33:42;17.80;99.90
22742;DHT22;11538;48.884;8.696;2023-05-27T07:36:09;17.90;99.90
22742;DHT22;11538;48.884;8.696;2023-05-27T07:38:37;18.00;99.90
22742;DHT22;11538;48.884;8.696;2023-05-27T07:41:04;18.20;99.90
22742;DHT22;11538;48.884;8.696;2023-05-27T07:43:30;18.30;99.90
22742;DHT22;11538;48.884;8.696;2023-05-27T07:45:57;18.40;99.90
22742;DHT22;11538;48.884;8.696;2023-05-27T07:48:24;18.50;99.90
22742;DHT22;11538;48.884;8.696;2023-05-27T07:50:51;18.60;99.90
22742;DHT22;11538;48.884;8.696;2023-05-27T07:53:19;18.70;99.90
22742;DHT22;11538;48.884;8.696;2023-05-27T07:55:46;18.80;99.90
22742;DHT22;11538;48.884;8.696;2023-05-27T07:58:16;18.90;99.90
22742;DHT22;11538;48.884;8.696;2023-05-27T08:00:44;19.00;99.90
22742;DHT22;11538;48.884;8.696;2023-05-27T08:03:11;19.20;99.90
22742;DHT22;11538;48.884;8.696;2023-05-27T08:05:38;19.30;99.90
22742;DHT22;11538;48.884;8.696;2023-05-27T08:08:05;19.50;99.90
22742;DHT22;11538;48.884;8.696;2023-05-27T08:10:32;19.70;99.90
22742;DHT22;11538;48.884;8.696;2023-05-27T08:13:02;19.80;99.90
22742;DHT22;11538;48.884;8.696;2023-05-27T08:15:28;20.00;99.90
22742;DHT22;11538;48.884;8.696;2023-05-27T08:17:55;20.10;99.90
22742;DHT22;11538;48.884;8.696;2023-05-27T08:20:22;20.30;99.90
22742;DHT22;11538;48.884;8.696;2023-05-27T08:22:49;20.40;99.90
22742;DHT22;11538;48.884;8.696;2023-05-27T08:25:16;20.50;99.90
22742;DHT22;11538;48.884;8.696;2023-05-27T08:27:54;20.70;99.90
22742;DHT22;11538;48.884;8.696;2023-05-27T08:30:29;20.80;99.90
22742;DHT22;11538;48.884;8.696;2023-05-27T08:32:56;21.00;99.90
22742;DHT22;11538;48.884;8.696;2023-05-27T08:35:27;21.10;99.90
22742;DHT22;11538;48.884;8.696;2023-05-27T08:37:54;21.30;99.90
22742;DHT22;11538;48.884;8.696;2023-05-27T08:40:21;21.40;99.90
22742;DHT22;11538;48.884;8.696;2023-05-27T08:42:48;21.50;99.90
22742;DHT22;11538;48.884;8.696;2023-05-27T08:45:16;21.60;99.90
22742;DHT22;11538;48.884;8.696;2023-05-27T08:47:43;21.70;99.90
22742;DHT22;11538;48.884;8.696;2023-05-27T08:50:10;21.80;99.90
22742;DHT22;11538;48.884;8.696;2023-05-27T08:52:44;21.90;99.90
22742;DHT22;11538;48.884;8.696;2023-05-27T08:55:19;22.00;99.90
22742;DHT22;11538;48.884;8.696;2023-05-27T08:57:56;22.10;99.90
22742;DHT22;11538;48.884;8.696;2023-05-27T09:00:25;22.20;99.90
22742;DHT22;11538;48.884;8.696;2023-05-27T09:02:53;22.40;99.90
22742;DHT22;11538;48.884;8.696;2023-05-27T09:05:26;22.50;99.90
22742;DHT22;11538;48.884;8.696;2023-05-27T09:07:54;22.60;99.90
22742;DHT22;11538;48.884;8.696;2023-05-27T09:10:22;22.70;99.90
22742;DHT22;11538;48.884;8.696;2023-05-27T09:12:50;22.80;99.90
22742;DHT22;11538;48.884;8.696;2023-05-27T09:15:17;22.80;99.90
22742;DHT22;11538;48.884;8.696;2023-05-27T09:17:45;22.90;99.90
22742;DHT22;11538;48.884;8.696;2023-05-27T09:20:15;23.10;99.90
22742;DHT22;11538;48.884;8.696;2023-05-27T09:22:42;23.20;99.90
22742;DHT22;11538;48.884;8.696;2023-05-27T09:25:10;23.40;99.90
22742;DHT22;11538;48.884;8.696;2023-05-27T09:27:43;23.50;99.90
22742;DHT22;11538;48.884;8.696;2023-05-27T09:30:11;23.60;99.90
22742;DHT22;11538;48.884;8.696;2023-05-27T09:32:41;23.80;99.90
22742;DHT22;11538;48.884;8.696;2023-05-27T09:35:12;23.90;99.90
22742;DHT22;11538;48.884;8.696;2023-05-27T09:37:40;24.00;99.90
22742;DHT22;11538;48.884;8.696;2023-05-27T09:40:09;24.10;99.90
22742;DHT22;11538;48.884;8.696;2023-05-27T09:42:40;24.20;99.90
22742;DHT22;11538;48.884;8.696;2023-05-27T09:47:52;24.50;99.90
22742;DHT22;11538;48.884;8.696;2023-05-27T09:50:21;24.60;99.90
22742;DHT22;11538;48.884;8.696;2023-05-27T09:52:49;24.70;99.90
22742;DHT22;11538;48.884;8.696;2023-05-27T09:55:36;24.80;99.90
22742;DHT22;11538;48.884;8.696;2023-05-27T09:58:03;25.00;99.90
22742;DHT22;11538;48.884;8.696;2023-05-27T10:00:33;25.10;99.90
22742;DHT22;11538;48.884;8.696;2023-05-27T10:03:00;25.20;99.90
22742;DHT22;11538;48.884;8.696;2023-05-27T10:05:29;25.30;99.90
22742;DHT22;11538;48.884;8.696;2023-05-27T10:07:56;25.40;99.90
22742;DHT22;11538;48.884;8.696;2023-05-27T10:10:39;25.50;99.90
22742;DHT22;11538;48.884;8.696;2023-05-27T10:13:07;25.70;99.90
22742;DHT22;11538;48.884;8.696;2023-05-27T10:15:35;25.70;99.90
22742;DHT22;11538;48.884;8.696;2023-05-27T10:18:06;25.80;99.90
22742;DHT22;11538;48.884;8.696;2023-05-27T10:20:37;25.90;99.90
22742;DHT22;11538;48.884;8.696;2023-05-27T10:23:16;26.00;99.90
22742;DHT22;11538;48.884;8.696;2023-05-27T10:25:48;26.10;99.90
22742;DHT22;11538;48.884;8.696;2023-05-27T10:28:27;26.20;99.90
22742;DHT22;11538;48.884;8.696;2023-05-27T10:31:05;26.30;99.90
22742;DHT22;11538;48.884;8.696;2023-05-27T10:33:36;26.40;99.90
22742;DHT22;11538;48.884;8.696;2023-05-27T10:36:14;26.60;99.90
22742;DHT22;11538;48.884;8.696;2023-05-27T10:38:42;26.70;99.90
22742;DHT22;11538;48.884;8.696;2023-05-27T10:41:10;26.90;99.90
22742;DHT22;11538;48.884;8.696;2023-05-27T10:43:37;26.90;99.90
22742;DHT22;11538;48.884;8.696;2023-05-27T10:46:08;27.00;99.90
22742;DHT22;11538;48.884;8.696;2023-05-27T10:48:38;27.00;99.90
22742;DHT22;11538;48.884;8.696;2023-05-27T10:51:08;27.20;99.90
22742;DHT22;11538;48.884;8.696;2023-05-27T10:53:37;27.30;99.90
22742;DHT22;11538;48.884;8.696;2023-05-27T10:56:05;27.40;99.90
22742;DHT22;11538;48.884;8.696;2023-05-27T10:58:37;27.50;99.90
22742;DHT22;11538;48.884;8.696;2023-05-27T11:01:14;27.70;99.90
22742;DHT22;11538;48.884;8.696;2023-05-27T11:03:45;27.80;99.90
22742;DHT22;11538;48.884;8.696;2023-05-27T11:06:13;27.90;99.90
22742;DHT22;11538;48.884;8.696;2023-05-27T11:08:42;28.10;99.90
22742;DHT22;11538;48.884;8.696;2023-05-27T11:11:10;28.20;99.90
22742;DHT22;11538;48.884;8.696;2023-05-27T11:13:40;28.40;99.90
22742;DHT22;11538;48.884;8.696;2023-05-27T11:16:15;28.60;99.90
22742;DHT22;11538;48.884;8.696;2023-05-27T11:18:44;28.70;99.90
22742;DHT22;11538;48.884;8.696;2023-05-27T11:21:15;28.90;99.90
22742;DHT22;11538;48.884;8.696;2023-05-27T11:23:47;29.00;99.90
22742;DHT22;11538;48.884;8.696;2023-05-27T11:26:17;29.20;99.90
22742;DHT22;11538;48.884;8.696;2023-05-27T11:28:53;29.40;99.90
22742;DHT22;11538;48.884;8.696;2023-05-27T11:31:28;29.50;99.90
22742;DHT22;11538;48.884;8.696;2023-05-27T11:33:57;29.70;99.90
22742;DHT22;11538;48.884;8.696;2023-05-27T11:36:28;29.80;99.90
22742;DHT22;11538;48.884;8.696;2023-05-27T11:38:59;30.00;99.90
22742;DHT22;11538;48.884;8.696;2023-05-27T11:41:29;30.20;99.90
22742;DHT22;11538;48.884;8.696;2023-05-27T11:43:58;30.40;99.90
22742;DHT22;11538;48.884;8.696;2023-05-27T11:46:38;30.60;99.90
22742;DHT22;11538;48.884;8.696;2023-05-27T11:49:09;30.60;99.90
22742;DHT22;11538;48.884;8.696;2023-05-27T11:51:39;30.70;99.90
22742;DHT22;11538;48.884;8.696;2023-05-27T11:54:29;30.80;99.90
22742;DHT22;11538;48.884;8.696;2023-05-27T11:56:59;31.00;99.90
22742;DHT22;11538;48.884;8.696;2023-05-27T11:59:26;31.20;99.90
22742;DHT22;11538;48.884;8.696;2023-05-27T12:01:53;31.30;99.90
22742;DHT22;11538;48.884;8.696;2023-05-27T12:04:21;31.40;99.90
22742;DHT22;11538;48.884;8.696;2023-05-27T12:06:47;31.40;99.90
22742;DHT22;11538;48.884;8.696;2023-05-27T12:09:14;31.50;99.90
22742;DHT22;11538;48.884;8.696;2023-05-27T12:11:42;31.70;99.90
22742;DHT22;11538;48.884;8.696;2023-05-27T12:14:09;31.90;99.90
22742;DHT22;11538;48.884;8.696;2023-05-27T12:16:36;32.00;99.90
22742;DHT22;11538;48.884;8.696;2023-05-27T12:19:03;32.20;99.90
22742;DHT22;11538;48.884;8.696;2023-05-27T12:21:30;32.30;99.90
22742;DHT22;11538;48.884;8.696;2023-05-27T12:23:58;32.50;99.90
22742;DHT22;11538;48.884;8.696;2023-05-27T12:26:25;32.60;99.90
22742;DHT22;11538;48.884;8.696;2023-05-27T12:28:52;32.70;99.90
22742;DHT22;11538;48.884;8.696;2023-05-27T12:31:19;32.80;99.90
22742;DHT22;11538;48.884;8.696;2023-05-27T12:33:46;32.90;99.90
22742;DHT22;11538;48.884;8.696;2023-05-27T12:36:13;33.00;99.90
22742;DHT22;11538;48.884;8.696;2023-05-27T12:38:41;33.20;99.90
22742;DHT22;11538;48.884;8.696;2023-05-27T12:41:08;33.30;99.90
22742;DHT22;11538;48.884;8.696;2023-05-27T12:43:37;33.40;99.90
22742;DHT22;11538;48.884;8.696;2023-05-27T12:46:04;33.50;99.90
22742;DHT22;11538;48.884;8.696;2023-05-27T12:48:32;33.70;99.90
22742;DHT22;11538;48.884;8.696;2023-05-27T12:50:59;33.80;99.90
22742;DHT22;11538;48.884;8.696;2023-05-27T12:53:26;33.90;99.90
22742;DHT22;11538;48.884;8.696;2023-05-27T12:55:53;33.90;99.90
22742;DHT22;11538;48.884;8.696;2023-05-27T12:58:20;33.90;99.90
22742;DHT22;11538;48.884;8.696;2023-05-27T13:00:48;34.00;99.90
22742;DHT22;11538;48.884;8.696;2023-05-27T13:03:15;33.90;99.90
22742;DHT22;11538;48.884;8.696;2023-05-27T13:05:42;34.00;99.90
22742;DHT22;11538;48.884;8.696;2023-05-27T13:08:09;34.10;99.90
22742;DHT22;11538;48.884;8.696;2023-05-27T13:10:36;34.10;99.90
22742;DHT22;11538;48.884;8.696;2023-05-27T13:13:03;34.10;99.90
22742;DHT22;11538;48.884;8.696;2023-05-27T13:15:30;34.30;99.90
22742;DHT22;11538;48.884;8.696;2023-05-27T13:17:58;34.40;99.90
22742;DHT22;11538;48.884;8.696;2023-05-27T13:20:26;34.50;99.90
22742;DHT22;11538;48.884;8.696;2023-05-27T13:22:56;34.50;99.90
22742;DHT22;11538;48.884;8.696;2023-05-27T13:25:28;34.50;99.90
22742;DHT22;11538;48.884;8.696;2023-05-27T13:27:56;34.60;99.90
22742;DHT22;11538;48.884;8.696;2023-05-27T13:30:24;34.60;99.90
22742;DHT22;11538;48.884;8.696;2023-05-27T13:32:53;34.60;99.90
22742;DHT22;11538;48.884;8.696;2023-05-27T13:35:20;34.60;99.90
22742;DHT22;11538;48.884;8.696;2023-05-27T13:37:47;34.60;99.90
22742;DHT22;11538;48.884;8.696;2023-05-27T13:40:14;34.70;99.90
22742;DHT22;11538;48.884;8.696;2023-05-27T13:42:41;34.70;99.90
22742;DHT22;11538;48.884;8.696;2023-05-27T13:45:08;34.70;99.90
22742;DHT22;11538;48.884;8.696;2023-05-27T13:47:36;34.70;99.90
22742;DHT22;11538;48.884;8.696;2023-05-27T13:50:08;34.70;99.90
22742;DHT22;11538;48.884;8.696;2023-05-27T13:52:36;34.60;99.90
22742;DHT22;11538;48.884;8.696;2023-05-27T13:55:03;34.60;99.90
22742;DHT22;11538;48.884;8.696;2023-05-27T13:57:30;34.60;99.90
22742;DHT22;11538;48.884;8.696;2023-05-27T13:59:57;34.60;99.90
22742;DHT22;11538;48.884;8.696;2023-05-27T14:02:24;34.60;99.90
22742;DHT22;11538;48.884;8.696;2023-05-27T14:04:51;34.60;99.90
22742;DHT22;11538;48.884;8.696;2023-05-27T14:07:21;34.50;99.90
22742;DHT22;11538;48.884;8.696;2023-05-27T14:09:47;34.50;99.90
22742;DHT22;11538;48.884;8.696;2023-05-27T14:12:14;34.40;99.90
22742;DHT22;11538;48.884;8.696;2023-05-27T14:14:41;34.30;99.90
22742;DHT22;11538;48.884;8.696;2023-05-27T14:17:08;34.20;99.90
22742;DHT22;11538;48.884;8.696;2023-05-27T14:19:35;34.10;99.90
22742;DHT22;11538;48.884;8.696;2023-05-27T14:22:02;33.90;99.90
22742;DHT22;11538;48.884;8.696;2023-05-27T14:24:35;33.70;99.90
22742;DHT22;11538;48.884;8.696;2023-05-27T14:27:02;33.60;99.90
22742;DHT22;11538;48.884;8.696;2023-05-27T14:29:29;33.50;99.90
22742;DHT22;11538;48.884;8.696;2023-05-27T14:31:56;33.40;99.90
22742;DHT22;11538;48.884;8.696;2023-05-27T14:34:23;33.30;99.90
22742;DHT22;11538;48.884;8.696;2023-05-27T14:36:50;33.20;99.90
22742;DHT22;11538;48.884;8.696;2023-05-27T14:39:17;33.20;99.90
22742;DHT22;11538;48.884;8.696;2023-05-27T14:41:44;33.10;99.90
22742;DHT22;11538;48.884;8.696;2023-05-27T14:44:11;33.00;99.90
22742;DHT22;11538;48.884;8.696;2023-05-27T14:46:38;32.90;99.90
22742;DHT22;11538;48.884;8.696;2023-05-27T14:49:05;32.70;99.90
22742;DHT22;11538;48.884;8.696;2023-05-27T14:51:32;32.70;99.90
22742;DHT22;11538;48.884;8.696;2023-05-27T14:53:59;32.60;99.90
22742;DHT22;11538;48.884;8.696;2023-05-27T14:56:26;32.50;99.90
22742;DHT22;11538;48.884;8.696;2023-05-27T14:58:53;32.40;99.90
22742;DHT22;11538;48.884;8.696;2023-05-27T15:01:20;32.30;99.90
22742;DHT22;11538;48.884;8.696;2023-05-27T15:03:47;32.30;99.90
22742;DHT22;11538;48.884;8.696;2023-05-27T15:06:14;32.20;99.90
22742;DHT22;11538;48.884;8.696;2023-05-27T15:08:41;32.00;99.90
22742;DHT22;11538;48.884;8.696;2023-05-27T15:11:08;31.90;99.90
22742;DHT22;11538;48.884;8.696;2023-05-27T15:13:35;31.80;99.90
22742;DHT22;11538;48.884;8.696;2023-05-27T15:16:02;31.70;99.90
22742;DHT22;11538;48.884;8.696;2023-05-27T15:18:29;31.50;99.90
22742;DHT22;11538;48.884;8.696;2023-05-27T15:20:57;31.40;99.90
22742;DHT22;11538;48.884;8.696;2023-05-27T15:23:23;31.20;99.90
22742;DHT22;11538;48.884;8.696;2023-05-27T15:25:50;31.10;99.90
22742;DHT22;11538;48.884;8.696;2023-05-27T15:28:19;31.00;99.90
22742;DHT22;11538;48.884;8.696;2023-05-27T15:30:46;30.90;99.90
22742;DHT22;11538;48.884;8.696;2023-05-27T15:33:14;30.80;99.90
22742;DHT22;11538;48.884;8.696;2023-05-27T15:35:41;30.70;99.90
22742;DHT22;11538;48.884;8.696;2023-05-27T15:38:10;30.60;99.90
22742;DHT22;11538;48.884;8.696;2023-05-27T15:40:43;30.60;99.90
22742;DHT22;11538;48.884;8.696;2023-05-27T15:43:11;30.50;99.90
22742;DHT22;11538;48.884;8.696;2023-05-27T15:45:39;30.40;99.90